Time;durP1;ratioP1;P1;durP2;ratioP2;P2;SDS_P1;SDS_P2;PMS_P1;PMS_P2;Temp;Humidity;BMP_temperature;BMP_pressure;BME280_temperature;BME280_humidity;BME280_pressure;Samples;Min_cycle;Max_cycle;Signal;HPM_P1;HPM_P2
2023/08/07 00:01:14;;;;;;;11.55;2.63;;;15.10;99.90;;;;;;5010519;28;20179;-71
2023/08/07 00:03:42;;;;;;;7.00;2.78;;;15.10;99.90;;;;;;5012529;28;20186;-72
2023/08/07 00:06:12;;;;;;;5.47;2.38;;;15.10;99.90;;;;;;5014806;28;20195;-69
2023/08/07 00:08:40;;;;;;;7.45;2.13;;;15.20;99.90;;;;;;5012047;28;20179;-69
2023/08/07 00:11:09;;;;;;;5.47;2.35;;;15.20;99.90;;;;;;5012270;28;20190;-71
2023/08/07 00:13:35;;;;;;;5.25;2.00;;;15.20;99.90;;;;;;5014663;28;20360;-71
2023/08/07 00:16:04;;;;;;;6.72;1.77;;;15.10;99.90;;;;;;4999732;28;20202;-66
2023/08/07 00:18:30;;;;;;;7.15;2.63;;;15.20;99.90;;;;;;5002191;28;20250;-66
2023/08/07 00:20:58;;;;;;;5.03;2.00;;;15.20;99.90;;;;;;5012543;28;20199;-65
2023/08/07 00:23:26;;;;;;;6.18;2.50;;;15.20;99.90;;;;;;5014856;28;20269;-66
2023/08/07 00:25:52;;;;;;;7.65;2.40;;;15.20;99.90;;;;;;5031753;28;20182;-66
2023/08/07 00:28:17;;;;;;;6.00;2.25;;;15.10;99.90;;;;;;5015309;28;20515;-65
2023/08/07 00:30:43;;;;;;;6.55;2.10;;;15.20;99.90;;;;;;5015151;28;20170;-66
2023/08/07 00:33:09;;;;;;;7.03;2.10;;;15.20;99.90;;;;;;5014959;28;20248;-66
2023/08/07 00:35:34;;;;;;;6.72;2.30;;;15.20;99.90;;;;;;5027490;28;20202;-66
2023/08/07 00:38:03;;;;;;;6.63;2.13;;;15.20;99.90;;;;;;5015131;28;20166;-66
2023/08/07 00:40:35;;;;;;;7.13;2.08;;;15.20;99.90;;;;;;5010380;28;20199;-65
2023/08/07 00:43:01;;;;;;;5.00;2.20;;;15.20;99.90;;;;;;5015245;28;20167;-66
2023/08/07 00:45:28;;;;;;;10.15;2.30;;;15.20;99.90;;;;;;5014702;28;20175;-65
2023/08/07 00:47:54;;;;;;;6.53;2.47;;;15.20;99.90;;;;;;5009490;28;20294;-66
2023/08/07 00:50:20;;;;;;;6.38;2.50;;;15.20;99.90;;;;;;5012247;28;20217;-65
2023/08/07 00:52:48;;;;;;;5.68;2.15;;;15.20;99.90;;;;;;5011315;28;20269;-65
2023/08/07 00:55:16;;;;;;;9.05;1.90;;;15.20;99.90;;;;;;5010150;28;20199;-66
2023/08/07 00:57:42;;;;;;;2.78;2.00;;;15.20;99.90;;;;;;5003459;28;20225;-65
2023/08/07 01:00:08;;;;;;;5.25;2.13;;;15.20;99.90;;;;;;5006742;28;20221;-65
2023/08/07 01:02:33;;;;;;;5.22;2.00;;;15.20;99.90;;;;;;5014208;28;20202;-65
2023/08/07 01:05:00;;;;;;;7.93;2.70;;;15.20;99.90;;;;;;5013599;28;20179;-65
2023/08/07 01:07:25;;;;;;;5.90;2.20;;;15.20;99.90;;;;;;5013790;28;20178;-65
2023/08/07 01:09:56;;;;;;;6.20;2.22;;;15.20;99.90;;;;;;5013079;28;20210;-65
2023/08/07 01:12:29;;;;;;;8.32;1.95;;;15.20;99.90;;;;;;5013671;28;20183;-65
2023/08/07 01:15:14;;;;;;;5.80;2.17;;;15.30;99.90;;;;;;5013934;28;20281;-65
2023/08/07 01:17:44;;;;;;;7.20;2.50;;;15.30;99.90;;;;;;5006161;28;20205;-64
2023/08/07 01:20:11;;;;;;;5.47;2.40;;;15.20;99.90;;;;;;5004322;28;20186;-65
2023/08/07 01:22:36;;;;;;;6.47;2.20;;;15.20;99.90;;;;;;5022048;28;20185;-64
2023/08/07 01:25:05;;;;;;;6.90;2.50;;;15.30;99.90;;;;;;5013915;28;20202;-65
2023/08/07 01:27:34;;;;;;;8.65;2.47;;;15.20;99.90;;;;;;5013297;28;20182;-64
2023/08/07 01:30:31;;;;;;;6.82;2.55;;;15.20;99.90;;;;;;5013076;28;20179;-65
2023/08/07 01:33:11;;;;;;;6.80;2.50;;;15.20;99.90;;;;;;5003021;28;20207;-65
2023/08/07 01:35:45;;;;;;;7.30;2.13;;;15.20;99.90;;;;;;5006290;28;20232;-66
2023/08/07 01:38:15;;;;;;;6.38;2.50;;;15.20;99.90;;;;;;5013419;28;20181;-65
2023/08/07 01:40:42;;;;;;;5.65;2.30;;;15.30;99.90;;;;;;5013856;28;20185;-65
2023/08/07 01:43:08;;;;;;;6.63;2.28;;;15.20;99.90;;;;;;5012025;28;20688;-65
2023/08/07 01:45:34;;;;;;;8.25;2.85;;;15.20;99.90;;;;;;5013794;28;20178;-66
2023/08/07 01:48:00;;;;;;;4.82;2.00;;;15.20;99.90;;;;;;5004767;28;20219;-64
2023/08/07 01:50:26;;;;;;;4.00;1.88;;;15.20;99.90;;;;;;5026751;28;20182;-65
2023/08/07 01:52:52;;;;;;;7.80;2.50;;;15.20;99.90;;;;;;5008631;28;20234;-65
2023/08/07 01:55:22;;;;;;;5.47;2.45;;;15.20;99.90;;;;;;5020800;28;20222;-66
2023/08/07 01:57:48;;;;;;;11.27;2.50;;;15.20;99.90;;;;;;5013486;28;20179;-64
2023/08/07 02:00:13;;;;;;;4.45;2.20;;;15.20;99.90;;;;;;5006322;28;20209;-65
2023/08/07 02:02:45;;;;;;;6.95;2.70;;;15.20;99.90;;;;;;5020801;28;20206;-64
2023/08/07 02:05:13;;;;;;;7.20;2.45;;;15.20;99.90;;;;;;5011779;28;20183;-64
2023/08/07 02:07:39;;;;;;;4.85;2.17;;;15.20;99.90;;;;;;5012855;28;20190;-66
2023/08/07 02:10:05;;;;;;;4.25;2.13;;;15.20;99.90;;;;;;5013297;28;20207;-65
2023/08/07 02:12:33;;;;;;;6.72;2.60;;;15.20;99.90;;;;;;4999779;28;20202;-64
2023/08/07 02:14:59;;;;;;;4.13;2.00;;;15.30;99.90;;;;;;5013781;28;20271;-64
2023/08/07 02:17:27;;;;;;;6.00;2.67;;;15.30;99.90;;;;;;5018351;28;20201;-64
2023/08/07 02:19:55;;;;;;;10.05;2.50;;;15.30;99.90;;;;;;5018626;28;20184;-66
2023/08/07 02:22:20;;;;;;;5.72;2.28;;;15.30;99.90;;;;;;5002909;28;20184;-64
2023/08/07 02:24:46;;;;;;;4.65;2.08;;;15.30;99.90;;;;;;5000739;28;20187;-65
2023/08/07 02:27:12;;;;;;;7.32;2.55;;;15.30;99.90;;;;;;5012817;28;20317;-64
2023/08/07 02:29:37;;;;;;;4.50;2.20;;;15.30;99.90;;;;;;5013763;28;20174;-64
2023/08/07 02:32:03;;;;;;;5.70;2.05;;;15.30;99.90;;;;;;5013852;28;20443;-65
2023/08/07 02:34:32;;;;;;;6.15;2.38;;;15.30;99.90;;;;;;5012559;28;20189;-67
2023/08/07 02:36:58;;;;;;;6.82;2.60;;;15.30;99.90;;;;;;5017282;28;20187;-65
2023/08/07 02:39:25;;;;;;;5.47;1.98;;;15.30;99.90;;;;;;5014774;28;20182;-65
2023/08/07 02:41:51;;;;;;;7.20;2.63;;;15.30;99.90;;;;;;5014479;28;20175;-64
2023/08/07 02:44:19;;;;;;;5.70;2.50;;;15.30;99.90;;;;;;5012913;28;20218;-64
2023/08/07 02:46:45;;;;;;;3.30;1.80;;;15.30;99.90;;;;;;5012686;28;20226;-64
2023/08/07 02:49:15;;;;;;;5.63;2.30;;;15.30;99.90;;;;;;5017114;28;20394;-65
2023/08/07 02:51:43;;;;;;;6.78;2.22;;;15.30;99.90;;;;;;5017380;28;20270;-65
2023/08/07 02:54:11;;;;;;;9.20;2.50;;;15.30;99.90;;;;;;5001824;28;20261;-66
2023/08/07 02:56:39;;;;;;;4.85;2.03;;;15.30;99.90;;;;;;5016975;28;20194;-65
2023/08/07 02:59:07;;;;;;;5.57;2.17;;;15.30;99.90;;;;;;5012143;28;20179;-65
2023/08/07 03:01:33;;;;;;;7.45;2.38;;;15.30;99.90;;;;;;5015544;28;20179;-65
2023/08/07 03:03:58;;;;;;;7.20;2.20;;;15.30;99.90;;;;;;5013016;28;20175;-64
2023/08/07 03:06:24;;;;;;;7.80;2.28;;;15.30;99.90;;;;;;5013673;28;20206;-64
2023/08/07 03:08:50;;;;;;;7.00;2.22;;;15.30;99.90;;;;;;5013389;28;20171;-65
2023/08/07 03:11:15;;;;;;;5.03;1.90;;;15.40;99.90;;;;;;5003022;28;20175;-64
2023/08/07 03:13:42;;;;;;;8.65;2.00;;;15.30;99.90;;;;;;5011999;28;20179;-64
2023/08/07 03:16:08;;;;;;;4.38;1.90;;;15.30;99.90;;;;;;5011236;28;20234;-65
2023/08/07 03:18:36;;;;;;;3.88;1.90;;;15.20;99.90;;;;;;5001716;28;20183;-64
2023/08/07 03:21:04;;;;;;;5.45;2.53;;;15.20;99.90;;;;;;5006395;28;20260;-65
2023/08/07 03:23:32;;;;;;;4.10;2.13;;;15.20;99.90;;;;;;5005974;28;20189;-64
2023/08/07 03:26:03;;;;;;;4.82;2.00;;;15.10;99.90;;;;;;5016235;28;20203;-65
2023/08/07 03:28:29;;;;;;;6.55;2.10;;;15.10;99.90;;;;;;5019027;28;20217;-64
2023/08/07 03:30:55;;;;;;;6.03;2.15;;;15.10;99.90;;;;;;5015715;28;20183;-64
2023/08/07 03:33:20;;;;;;;10.75;2.55;;;15.10;99.90;;;;;;5013067;28;20178;-65
2023/08/07 03:35:48;;;;;;;6.72;2.60;;;15.00;99.90;;;;;;5024434;28;20225;-65
2023/08/07 03:38:14;;;;;;;6.97;2.50;;;15.00;99.90;;;;;;5009029;28;20218;-65
2023/08/07 03:40:39;;;;;;;6.57;2.33;;;15.00;99.90;;;;;;5012706;28;20213;-64
2023/08/07 03:43:07;;;;;;;4.28;2.10;;;15.00;99.90;;;;;;5015447;28;20194;-64
2023/08/07 03:45:33;;;;;;;6.72;2.65;;;14.90;99.90;;;;;;5012999;28;20191;-64
2023/08/07 03:47:58;;;;;;;4.35;2.25;;;14.90;99.90;;;;;;5014601;28;20212;-66
2023/08/07 03:50:24;;;;;;;5.72;2.40;;;14.90;99.90;;;;;;5006500;28;20202;-65
2023/08/07 03:52:49;;;;;;;6.22;2.65;;;14.90;99.90;;;;;;5015787;28;20214;-65
2023/08/07 03:55:15;;;;;;;2.67;1.88;;;14.80;99.90;;;;;;5015724;28;20237;-65
2023/08/07 03:57:41;;;;;;;4.30;1.92;;;14.70;99.90;;;;;;5012981;28;20232;-65
2023/08/07 04:00:07;;;;;;;5.78;2.25;;;14.70;99.90;;;;;;5010215;28;20433;-65
2023/08/07 04:02:35;;;;;;;6.22;2.53;;;14.70;99.90;;;;;;5012807;28;20230;-66
2023/08/07 04:05:03;;;;;;;4.15;2.28;;;14.60;99.90;;;;;;5017375;28;20198;-65
2023/08/07 04:07:31;;;;;;;6.63;2.65;;;14.60;99.90;;;;;;5012788;28;20213;-66
2023/08/07 04:09:57;;;;;;;4.15;2.20;;;14.60;99.90;;;;;;5015840;28;20187;-64
2023/08/07 04:12:22;;;;;;;3.75;2.20;;;14.50;99.90;;;;;;5012697;28;20199;-64
2023/08/07 04:14:48;;;;;;;4.97;2.17;;;14.50;99.90;;;;;;5031847;28;20171;-66
2023/08/07 04:17:16;;;;;;;4.43;1.80;;;14.50;99.90;;;;;;5014956;28;20186;-65
2023/08/07 04:19:41;;;;;;;8.38;2.50;;;14.50;99.90;;;;;;5015704;28;20220;-66
2023/08/07 04:22:09;;;;;;;8.50;2.20;;;14.50;99.90;;;;;;5022156;28;20190;-65
2023/08/07 04:24:35;;;;;;;5.35;2.20;;;14.40;99.90;;;;;;5009977;28;20175;-66
2023/08/07 04:27:02;;;;;;;4.72;2.47;;;14.40;99.90;;;;;;5017134;28;20170;-69
2023/08/07 04:29:28;;;;;;;5.30;2.08;;;14.40;99.90;;;;;;5013521;28;20179;-66
2023/08/07 04:31:54;;;;;;;6.45;2.42;;;14.40;99.90;;;;;;5011641;28;20195;-66
2023/08/07 04:34:19;;;;;;;3.92;1.80;;;14.30;99.90;;;;;;5007958;28;20175;-65
2023/08/07 04:36:47;;;;;;;5.07;1.90;;;14.30;99.90;;;;;;5021039;28;20194;-65
2023/08/07 04:39:13;;;;;;;5.97;2.53;;;14.30;99.90;;;;;;5014972;28;20221;-65
2023/08/07 04:41:41;;;;;;;4.80;2.13;;;14.30;99.90;;;;;;5012549;28;20175;-66
2023/08/07 04:44:09;;;;;;;6.45;2.17;;;14.30;99.90;;;;;;5011624;28;20187;-67
2023/08/07 04:46:35;;;;;;;3.67;2.17;;;14.30;99.90;;;;;;5002570;28;20179;-65
2023/08/07 04:49:01;;;;;;;3.88;2.30;;;14.40;99.90;;;;;;5014754;28;20194;-67
2023/08/07 04:51:28;;;;;;;4.22;2.03;;;14.40;99.90;;;;;;5014538;28;20171;-66
2023/08/07 04:53:56;;;;;;;5.85;2.40;;;14.40;99.90;;;;;;5013447;28;20258;-67
2023/08/07 04:56:22;;;;;;;4.57;2.22;;;14.40;99.90;;;;;;5013516;28;20294;-65
2023/08/07 04:58:50;;;;;;;6.45;2.30;;;14.40;99.90;;;;;;5008623;28;20257;-66
2023/08/07 05:01:15;;;;;;;6.65;2.25;;;14.40;99.90;;;;;;5010833;28;20175;-65
2023/08/07 05:03:43;;;;;;;4.78;2.20;;;14.50;99.90;;;;;;5002399;28;20177;-65
2023/08/07 05:06:09;;;;;;;5.57;2.38;;;14.50;99.90;;;;;;5013710;28;20290;-66
2023/08/07 05:08:35;;;;;;;3.72;2.33;;;14.60;99.90;;;;;;5015121;28;20214;-65
2023/08/07 05:11:00;;;;;;;5.70;2.22;;;14.60;99.90;;;;;;5014595;28;20248;-66
2023/08/07 05:13:28;;;;;;;3.97;2.25;;;14.50;99.90;;;;;;5011160;28;20196;-66
2023/08/07 05:15:54;;;;;;;3.05;1.92;;;14.60;99.90;;;;;;5014475;28;20191;-65
2023/08/07 05:18:19;;;;;;;3.88;2.15;;;14.70;99.90;;;;;;5014168;28;20212;-64
2023/08/07 05:20:47;;;;;;;5.13;2.20;;;14.70;99.90;;;;;;5012417;28;20194;-64
2023/08/07 05:23:17;;;;;;;6.10;2.28;;;14.70;99.90;;;;;;5014461;28;20193;-65
2023/08/07 05:25:46;;;;;;;5.20;2.40;;;14.80;99.90;;;;;;5017323;28;20186;-65
2023/08/07 05:28:12;;;;;;;6.53;2.38;;;14.80;99.90;;;;;;5015289;28;20201;-65
2023/08/07 05:30:40;;;;;;;5.55;2.40;;;14.80;99.90;;;;;;5010536;28;20261;-65
2023/08/07 05:33:08;;;;;;;3.83;2.13;;;14.80;99.90;;;;;;4996885;28;20183;-66
2023/08/07 05:35:34;;;;;;;5.88;2.83;;;14.90;99.90;;;;;;5013501;28;20298;-66
2023/08/07 05:37:59;;;;;;;5.78;2.28;;;14.90;99.90;;;;;;5014115;28;20277;-65
2023/08/07 05:40:25;;;;;;;4.85;2.50;;;14.90;99.90;;;;;;5003749;28;20258;-65
2023/08/07 05:42:51;;;;;;;4.72;2.30;;;15.00;99.90;;;;;;5007152;28;20198;-65
2023/08/07 05:45:16;;;;;;;4.60;2.22;;;15.00;99.90;;;;;;4996755;28;20179;-66
2023/08/07 05:47:42;;;;;;;3.70;2.13;;;15.00;99.90;;;;;;5026598;28;20199;-65
2023/08/07 05:50:08;;;;;;;6.07;2.70;;;15.10;99.90;;;;;;5004694;28;20184;-65
2023/08/07 05:52:38;;;;;;;3.90;2.05;;;15.10;99.90;;;;;;5013295;28;20190;-66
2023/08/07 05:55:09;;;;;;;6.72;2.58;;;15.10;99.90;;;;;;5013804;28;20190;-65
2023/08/07 05:57:35;;;;;;;7.68;2.40;;;15.20;99.90;;;;;;5013578;28;20269;-66
2023/08/07 06:00:03;;;;;;;6.80;2.95;;;15.20;99.90;;;;;;5013729;28;20202;-66
2023/08/07 06:02:28;;;;;;;6.80;2.78;;;15.20;99.90;;;;;;5010687;28;20191;-65
2023/08/07 06:04:54;;;;;;;4.97;2.10;;;15.20;99.90;;;;;;5010103;28;20175;-65
2023/08/07 06:07:22;;;;;;;5.32;2.30;;;15.20;99.90;;;;;;5013990;28;20266;-65
2023/08/07 06:09:51;;;;;;;5.45;2.47;;;15.30;99.90;;;;;;5013498;28;20174;-65
2023/08/07 06:12:18;;;;;;;4.53;2.08;;;15.30;99.90;;;;;;5002368;28;20274;-65
2023/08/07 06:14:44;;;;;;;6.00;2.60;;;15.30;99.90;;;;;;5008027;28;20230;-65
2023/08/07 06:17:10;;;;;;;4.47;2.00;;;15.30;99.90;;;;;;5017620;28;20206;-65
2023/08/07 06:19:35;;;;;;;6.72;2.63;;;15.30;99.90;;;;;;5017084;28;20264;-66
2023/08/07 06:22:01;;;;;;;4.43;2.33;;;15.40;99.90;;;;;;5017124;28;20175;-65
2023/08/07 06:24:31;;;;;;;5.03;2.33;;;15.30;99.90;;;;;;5014633;28;20262;-66
2023/08/07 06:26:57;;;;;;;6.93;2.45;;;15.40;99.90;;;;;;5011016;28;20179;-64
2023/08/07 06:29:22;;;;;;;7.03;2.25;;;15.40;99.90;;;;;;5017001;28;20195;-64
2023/08/07 06:31:50;;;;;;;3.70;1.85;;;15.40;99.90;;;;;;5013780;28;20187;-65
2023/08/07 06:34:18;;;;;;;5.35;2.33;;;15.40;99.90;;;;;;5016984;28;20269;-65
2023/08/07 06:36:44;;;;;;;5.07;2.53;;;15.40;99.90;;;;;;5019125;28;20199;-65
2023/08/07 06:39:09;;;;;;;4.97;2.10;;;15.40;99.90;;;;;;5028785;28;20171;-65
2023/08/07 06:41:40;;;;;;;4.88;2.50;;;15.40;99.90;;;;;;5016761;28;20206;-65
2023/08/07 06:44:07;;;;;;;5.22;2.53;;;15.40;99.90;;;;;;5012683;28;20310;-64
2023/08/07 06:46:33;;;;;;;5.75;2.30;;;15.40;99.90;;;;;;4999653;28;20183;-65
2023/08/07 06:48:59;;;;;;;5.32;2.20;;;15.30;99.90;;;;;;5013353;28;20211;-65
2023/08/07 06:51:27;;;;;;;5.95;2.20;;;15.30;99.90;;;;;;5005897;28;20273;-64
2023/08/07 06:53:57;;;;;;;5.32;2.30;;;15.30;99.90;;;;;;5009718;28;20273;-64
2023/08/07 06:56:25;;;;;;;4.22;2.20;;;15.20;99.90;;;;;;5017242;28;20199;-65
2023/08/07 06:58:50;;;;;;;5.85;2.25;;;15.10;99.90;;;;;;5013055;28;20241;-65
2023/08/07 07:01:16;;;;;;;7.00;2.35;;;15.00;99.90;;;;;;5016369;28;20182;-65
2023/08/07 07:03:41;;;;;;;3.67;2.10;;;15.00;99.90;;;;;;5016931;28;20174;-66
2023/08/07 07:06:08;;;;;;;4.00;2.05;;;14.80;99.90;;;;;;5014557;28;20538;-67
2023/08/07 07:08:38;;;;;;;4.40;2.30;;;14.70;99.90;;;;;;5016446;28;20179;-66
2023/08/07 07:11:04;;;;;;;6.55;2.10;;;14.70;99.90;;;;;;5010549;28;20190;-65
2023/08/07 07:13:32;;;;;;;3.67;2.25;;;14.60;99.90;;;;;;5016352;28;20185;-66
2023/08/07 07:15:58;;;;;;;4.55;2.00;;;14.40;99.90;;;;;;5016245;28;20207;-66
2023/08/07 07:18:23;;;;;;;3.40;1.88;;;14.40;99.90;;;;;;5012138;28;20181;-66
2023/08/07 07:21:02;;;;;;;4.68;2.33;;;14.30;99.90;;;;;;5016166;28;20186;-66
2023/08/07 07:23:28;;;;;;;4.78;2.28;;;14.30;99.90;;;;;;5015271;28;20174;-65
2023/08/07 07:25:54;;;;;;;4.07;2.40;;;14.30;99.90;;;;;;5015495;28;20277;-68
2023/08/07 07:28:21;;;;;;;3.78;2.15;;;14.20;99.90;;;;;;5016255;28;20262;-66
2023/08/07 07:30:47;;;;;;;5.22;2.28;;;14.20;99.90;;;;;;5016007;28;20254;-66
2023/08/07 07:33:15;;;;;;;4.43;1.92;;;14.20;99.90;;;;;;5016384;28;20222;-66
2023/08/07 07:35:40;;;;;;;6.18;2.45;;;14.20;99.90;;;;;;5015649;28;20214;-67
2023/08/07 07:38:07;;;;;;;6.78;2.45;;;14.20;99.90;;;;;;5010155;28;20221;-66
2023/08/07 07:40:34;;;;;;;3.35;2.25;;;14.20;99.90;;;;;;5016241;28;20237;-67
2023/08/07 07:43:02;;;;;;;5.28;2.50;;;14.10;99.90;;;;;;5015214;28;20339;-67
2023/08/07 07:45:28;;;;;;;4.65;2.13;;;14.10;99.90;;;;;;5015592;28;20187;-66
2023/08/07 07:47:55;;;;;;;2.63;1.98;;;14.10;99.90;;;;;;5015641;28;20217;-66
2023/08/07 07:50:21;;;;;;;5.18;2.30;;;14.10;99.90;;;;;;5015531;28;20203;-66
2023/08/07 07:52:47;;;;;;;4.55;2.00;;;14.20;99.90;;;;;;5016088;28;20193;-67
2023/08/07 07:55:13;;;;;;;7.22;2.50;;;14.20;99.90;;;;;;5023840;28;20285;-66
2023/08/07 07:57:40;;;;;;;4.78;2.40;;;14.20;99.90;;;;;;5015827;28;20278;-66
2023/08/07 08:00:10;;;;;;;5.43;2.25;;;14.20;99.90;;;;;;5015218;28;20205;-66
2023/08/07 08:02:40;;;;;;;8.68;3.17;;;14.30;99.90;;;;;;5015391;28;20182;-66
2023/08/07 08:05:07;;;;;;;7.00;2.60;;;14.40;99.90;;;;;;5015347;28;20198;-65
2023/08/07 08:07:38;;;;;;;9.70;2.72;;;14.40;99.90;;;;;;5007899;28;20185;-67
2023/08/07 08:10:08;;;;;;;6.63;3.20;;;14.50;99.90;;;;;;4997963;28;20179;-65
2023/08/07 08:12:35;;;;;;;4.93;2.78;;;14.60;99.90;;;;;;5014524;28;20217;-65
2023/08/07 08:15:01;;;;;;;5.25;2.53;;;14.60;99.90;;;;;;5015373;28;20209;-65
2023/08/07 08:17:28;;;;;;;4.43;2.33;;;14.70;99.90;;;;;;5015156;28;20182;-65
2023/08/07 08:19:54;;;;;;;5.93;2.75;;;14.80;99.90;;;;;;5012554;28;20230;-65
2023/08/07 08:22:22;;;;;;;4.40;2.38;;;14.90;99.90;;;;;;5013881;28;20179;-65
2023/08/07 08:24:50;;;;;;;6.93;2.30;;;15.00;99.90;;;;;;5012543;28;20170;-65
2023/08/07 08:27:17;;;;;;;7.18;2.70;;;15.00;99.90;;;;;;5015429;28;20209;-65
2023/08/07 08:29:45;;;;;;;4.03;2.10;;;15.10;99.90;;;;;;5007044;28;20462;-66
2023/08/07 08:32:11;;;;;;;5.32;2.20;;;15.10;99.90;;;;;;5014442;28;20201;-66
2023/08/07 08:34:39;;;;;;;6.15;2.15;;;15.20;99.90;;;;;;5015347;28;20187;-68
2023/08/07 08:37:08;;;;;;;4.93;2.30;;;15.20;99.90;;;;;;5011818;28;20203;-68
2023/08/07 08:39:34;;;;;;;5.20;2.30;;;15.40;99.90;;;;;;5014999;28;20182;-69
2023/08/07 08:41:59;;;;;;;3.95;2.15;;;15.30;99.90;;;;;;5014569;28;20197;-70
2023/08/07 08:44:31;;;;;;;4.13;2.25;;;15.30;99.90;;;;;;5008112;28;20198;-69
2023/08/07 08:47:00;;;;;;;6.55;2.40;;;15.50;99.90;;;;;;5003773;28;20221;-70
2023/08/07 08:49:36;;;;;;;6.20;2.20;;;15.50;99.90;;;;;;5014619;28;20304;-69
2023/08/07 08:52:07;;;;;;;4.55;2.13;;;15.60;99.90;;;;;;5000027;28;20187;-70
2023/08/07 08:54:38;;;;;;;6.65;2.50;;;15.70;99.90;;;;;;5012805;28;20384;-69
2023/08/07 08:57:10;;;;;;;4.50;2.20;;;15.70;99.90;;;;;;5014676;28;20218;-69
2023/08/07 08:59:36;;;;;;;6.20;2.10;;;15.80;99.90;;;;;;5008507;28;20217;-69
2023/08/07 09:02:04;;;;;;;5.50;2.30;;;15.90;99.90;;;;;;5014734;28;20186;-71
2023/08/07 09:04:32;;;;;;;7.70;2.75;;;15.90;99.90;;;;;;5008590;28;20210;-71
2023/08/07 09:07:01;;;;;;;5.68;2.25;;;16.00;99.90;;;;;;5006161;28;20183;-67
2023/08/07 09:09:30;;;;;;;3.47;2.00;;;16.00;99.90;;;;;;5009808;28;20192;-71
2023/08/07 09:12:00;;;;;;;5.70;2.50;;;16.00;99.90;;;;;;5014016;28;20199;-69
2023/08/07 09:14:30;;;;;;;5.63;2.20;;;16.00;99.90;;;;;;5016706;28;20190;-71
2023/08/07 09:16:59;;;;;;;6.05;2.15;;;16.10;99.90;;;;;;4994861;28;20199;-72
2023/08/07 09:19:25;;;;;;;8.63;2.17;;;16.10;99.90;;;;;;5009721;28;20178;-72
2023/08/07 09:21:51;;;;;;;5.82;2.15;;;16.20;99.90;;;;;;5013992;28;20228;-71
2023/08/07 09:24:19;;;;;;;5.63;2.30;;;16.20;99.90;;;;;;5014008;28;20171;-70
2023/08/07 09:26:45;;;;;;;4.85;2.22;;;16.30;99.90;;;;;;5014970;28;20198;-69
2023/08/07 09:29:11;;;;;;;4.03;2.22;;;16.40;99.90;;;;;;5012369;28;20186;-71
2023/08/07 09:31:37;;;;;;;3.92;2.10;;;16.50;99.90;;;;;;5013684;28;20191;-72
2023/08/07 09:34:04;;;;;;;4.47;2.17;;;16.60;99.90;;;;;;5013812;28;20198;-71
2023/08/07 09:36:31;;;;;;;3.63;1.88;;;16.80;99.90;;;;;;5013844;28;20536;-71
2023/08/07 09:39:01;;;;;;;5.80;2.67;;;16.90;99.90;;;;;;5013688;28;20179;-71
2023/08/07 09:41:29;;;;;;;2.58;2.10;;;17.00;99.90;;;;;;5013709;28;20268;-70
2023/08/07 09:43:56;;;;;;;4.70;2.03;;;17.10;99.90;;;;;;5008797;28;20202;-70
2023/08/07 09:46:21;;;;;;;3.85;2.00;;;17.20;99.90;;;;;;5013808;28;20269;-71
2023/08/07 09:48:47;;;;;;;5.00;2.17;;;17.20;99.90;;;;;;5016966;28;20290;-69
2023/08/07 09:51:15;;;;;;;4.18;2.15;;;17.20;99.90;;;;;;5010355;28;20213;-69
2023/08/07 09:53:41;;;;;;;4.93;2.10;;;17.20;99.90;;;;;;5015598;28;20410;-71
2023/08/07 09:56:06;;;;;;;2.95;2.10;;;17.20;99.90;;;;;;5015461;28;20198;-70
2023/08/07 09:58:33;;;;;;;4.50;1.83;;;17.20;99.90;;;;;;5010099;28;20282;-71
2023/08/07 10:01:04;;;;;;;6.05;2.30;;;17.20;99.90;;;;;;5034167;28;20171;-71
2023/08/07 10:03:31;;;;;;;4.20;2.13;;;17.20;99.90;;;;;;5001417;28;20201;-70
2023/08/07 10:05:58;;;;;;;3.83;2.10;;;17.10;99.90;;;;;;5017403;28;20183;-72
2023/08/07 10:08:27;;;;;;;3.15;1.85;;;17.20;99.90;;;;;;5017522;28;20191;-72
2023/08/07 10:10:55;;;;;;;4.20;2.30;;;17.20;99.90;;;;;;5016773;28;20285;-72
2023/08/07 10:13:23;;;;;;;4.10;2.05;;;17.20;99.90;;;;;;5016923;28;20179;-72
2023/08/07 10:15:50;;;;;;;5.13;2.25;;;17.10;99.90;;;;;;4998039;28;20199;-70
2023/08/07 10:18:15;;;;;;;4.38;2.17;;;17.20;99.90;;;;;;5020601;28;20191;-73
2023/08/07 10:20:43;;;;;;;4.13;1.80;;;17.20;99.90;;;;;;5007753;28;20175;-70
2023/08/07 10:23:11;;;;;;;4.13;1.88;;;17.20;99.90;;;;;;5021178;28;20213;-72
2023/08/07 10:25:43;;;;;;;5.00;2.30;;;17.20;99.90;;;;;;5009215;28;20276;-72
2023/08/07 10:28:13;;;;;;;3.78;2.30;;;17.30;99.90;;;;;;5017251;28;20248;-72
2023/08/07 10:30:42;;;;;;;3.75;2.20;;;17.40;99.90;;;;;;5016408;28;20179;-73
2023/08/07 10:33:10;;;;;;;4.72;2.10;;;17.40;99.90;;;;;;5016716;28;20211;-72
2023/08/07 10:35:37;;;;;;;3.90;1.80;;;17.50;99.90;;;;;;5016815;28;20199;-74
2023/08/07 10:38:13;;;;;;;3.15;1.90;;;17.60;99.90;;;;;;5017418;28;20171;-72
2023/08/07 10:40:58;;;;;;;3.53;2.10;;;17.70;99.90;;;;;;5006737;28;20205;-74
2023/08/07 10:43:24;;;;;;;3.30;1.88;;;17.80;99.90;;;;;;5018314;28;20190;-72
2023/08/07 10:45:50;;;;;;;5.70;1.92;;;18.00;99.90;;;;;;5016658;28;20256;-72
2023/08/07 10:48:20;;;;;;;3.78;1.90;;;18.10;99.90;;;;;;5016443;28;20295;-73
2023/08/07 10:50:57;;;;;;;3.05;1.70;;;18.30;99.90;;;;;;5017220;28;20266;-70
2023/08/07 10:53:45;;;;;;;3.65;2.00;;;18.50;99.90;;;;;;5012400;28;20225;-74
2023/08/07 10:56:16;;;;;;;8.15;1.98;;;18.60;99.90;;;;;;5016644;28;20215;-74
2023/08/07 10:58:44;;;;;;;4.18;1.80;;;18.80;99.90;;;;;;5006091;28;20196;-74
2023/08/07 11:01:30;;;;;;;4.32;2.30;;;19.00;99.90;;;;;;5016691;28;20179;-72
2023/08/07 11:04:00;;;;;;;4.57;2.15;;;19.20;99.90;;;;;;5015995;28;20171;-72
2023/08/07 11:06:31;;;;;;;6.63;2.35;;;19.30;99.90;;;;;;5016321;28;20205;-70
2023/08/07 11:09:00;;;;;;;3.95;2.15;;;19.40;99.90;;;;;;5016482;28;20171;-72
2023/08/07 11:11:39;;;;;;;3.50;1.85;;;19.60;99.90;;;;;;5021177;28;20209;-75
2023/08/07 11:14:08;;;;;;;4.88;2.05;;;19.90;99.90;;;;;;5011709;28;20175;-73
2023/08/07 11:16:34;;;;;;;4.00;1.98;;;20.10;99.90;;;;;;5002401;28;20197;-73
2023/08/07 11:19:04;;;;;;;4.20;2.03;;;20.40;99.90;;;;;;5015930;28;20197;-75
2023/08/07 11:21:31;;;;;;;2.90;2.03;;;20.40;99.90;;;;;;5015787;28;20183;-72
2023/08/07 11:23:59;;;;;;;3.38;1.83;;;20.50;99.90;;;;;;5016058;28;20170;-72
2023/08/07 11:26:25;;;;;;;2.90;1.75;;;20.40;99.90;;;;;;5016295;28;20183;-75
2023/08/07 11:28:52;;;;;;;3.30;1.85;;;20.40;99.90;;;;;;5016201;28;20178;-74
2023/08/07 11:31:21;;;;;;;4.90;2.95;;;20.40;99.90;;;;;;5015228;28;20175;-74
2023/08/07 11:33:50;;;;;;;4.22;2.10;;;20.40;99.90;;;;;;5015871;28;20179;-72
2023/08/07 11:36:19;;;;;;;4.68;2.20;;;20.50;99.90;;;;;;5015833;28;20198;-74
2023/08/07 11:38:44;;;;;;;5.45;2.42;;;20.70;99.90;;;;;;5015635;28;20182;-75
2023/08/07 11:41:16;;;;;;;4.47;2.38;;;20.80;99.90;;;;;;5032975;28;20170;-74
2023/08/07 11:43:44;;;;;;;4.00;1.85;;;20.90;99.90;;;;;;5015491;28;20183;-74
2023/08/07 11:46:14;;;;;;;2.83;2.00;;;21.10;99.90;;;;;;5015728;28;20254;-73
2023/08/07 11:48:43;;;;;;;3.45;1.80;;;21.30;99.90;;;;;;5015419;28;20241;-72
2023/08/07 11:51:12;;;;;;;4.90;1.95;;;21.40;99.90;;;;;;5015588;28;20178;-72
2023/08/07 11:53:40;;;;;;;3.97;1.88;;;21.60;99.90;;;;;;5015195;28;20205;-74
2023/08/07 11:56:16;;;;;;;3.78;1.80;;;21.70;99.90;;;;;;5021565;28;20198;-74
2023/08/07 11:58:47;;;;;;;3.72;1.90;;;21.80;99.90;;;;;;5036781;28;20170;-70
2023/08/07 12:01:21;;;;;;;3.75;1.80;;;21.80;99.90;;;;;;5020703;28;20225;-73
2023/08/07 12:04:09;;;;;;;3.90;1.88;;;21.70;99.90;;;;;;5015770;28;20166;-72
2023/08/07 12:06:36;;;;;;;3.05;1.80;;;21.60;99.90;;;;;;5015111;28;20271;-74
2023/08/07 12:09:02;;;;;;;4.50;2.17;;;21.70;99.90;;;;;;5015374;28;20198;-74
2023/08/07 12:11:31;;;;;;;3.22;1.60;;;21.80;99.90;;;;;;5011422;28;20180;-71
2023/08/07 12:14:01;;;;;;;3.90;1.73;;;21.90;99.90;;;;;;5015386;28;20178;-73
2023/08/07 12:16:35;;;;;;;2.65;1.75;;;22.00;99.90;;;;;;5015456;28;20238;-74
2023/08/07 12:19:01;;;;;;;3.63;1.73;;;22.10;99.90;;;;;;5016172;28;20175;-72
2023/08/07 12:21:28;;;;;;;3.85;1.70;;;22.10;99.90;;;;;;5032742;28;20170;-73
2023/08/07 12:23:56;;;;;;;3.33;1.60;;;22.20;99.90;;;;;;5019246;28;20205;-73
2023/08/07 12:26:22;;;;;;;3.10;1.90;;;22.20;99.90;;;;;;5015407;28;20372;-72
2023/08/07 12:28:50;;;;;;;3.63;1.60;;;22.30;99.90;;;;;;5013017;28;20446;-74
2023/08/07 12:31:17;;;;;;;3.53;1.52;;;22.30;99.90;;;;;;5014881;28;20199;-72
2023/08/07 12:33:43;;;;;;;2.80;1.60;;;22.30;99.90;;;;;;5003217;28;20179;-73
2023/08/07 12:36:11;;;;;;;3.40;1.60;;;22.30;99.90;;;;;;5002120;28;20205;-75
2023/08/07 12:38:37;;;;;;;3.63;1.65;;;22.30;99.90;;;;;;5014798;28;20250;-72
2023/08/07 12:41:04;;;;;;;4.72;1.73;;;22.40;99.90;;;;;;5010511;28;20213;-71
2023/08/07 12:43:32;;;;;;;3.58;1.70;;;22.50;99.90;;;;;;5012871;28;20231;-72
2023/08/07 12:45:59;;;;;;;4.72;1.80;;;22.70;99.90;;;;;;5014855;28;20202;-74
2023/08/07 12:48:27;;;;;;;2.80;1.88;;;22.80;99.90;;;;;;5014231;28;20214;-72